Time;durP1;ratioP1;P1;durP2;ratioP2;P2;SDS_P1;SDS_P2;PMS_P1;PMS_P2;Temp;Humidity;BMP_temperature;BMP_pressure;BME280_temperature;BME280_humidity;BME280_pressure;Samples;Min_cycle;Max_cycle;Signal;HPM_P1;HPM_P2
2019/04/02 00:00:09;;;;;;;39.4;31.1;;;;;;;7.54;76.70605;935.6878;;;;
2019/04/02 00:02:34;;;;;;;38.8;29.6;;;;;;;7.93;74.86816;935.7255;;;;
2019/04/02 00:04:59;;;;;;;36.2;28.6;;;;;;;8.37;72.27441;935.662;;;;
2019/04/02 00:07:27;;;;;;;36;28;;;;;;;8.35;71.57813;935.7275;;;;
2019/04/02 00:09:49;;;;;;;32.6;27.1;;;;;;;7.92;73.20898;935.6508;;;;
2019/04/02 00:12:14;;;;;;;35.5;27.4;;;;;;;7.79;73.5498;935.7167;;;;
2019/04/02 00:14:40;;;;;;;36.1;27.7;;;;;;;7.46;75.06836;935.7245;;;;
2019/04/02 00:17:05;;;;;;;37.2;28.9;;;;;;;7.33;76.06641;935.6808;;;;
2019/04/02 00:19:31;;;;;;;35.8;27.9;;;;;;;7.37;75.8125;935.6902;;;;
2019/04/02 00:21:56;;;;;;;37.5;27.3;;;;;;;7.83;73.6709;935.7477;;;;
2019/04/02 00:24:21;;;;;;;36.9;28.5;;;;;;;7.56;74.78027;935.7159;;;;
2019/04/02 00:26:47;;;;;;;33.5;27.8;;;;;;;7.7;74.52344;935.6527;;;;
2019/04/02 00:29:12;;;;;;;36.9;27.8;;;;;;;7.55;75.07324;935.6451;;;;
2019/04/02 00:31:39;;;;;;;37.6;28.8;;;;;;;7.77;74.60254;935.702;;;;
2019/04/02 00:34:03;;;;;;;37.3;29.4;;;;;;;7.53;75.27441;935.6552;;;;
2019/04/02 00:36:28;;;;;;;37.2;29.2;;;;;;;7.59;75.2168;935.6498;;;;
2019/04/02 00:38:53;;;;;;;40.2;29.9;;;;;;;7.62;74.89453;935.6261;;;;
2019/04/02 00:41:18;;;;;;;39.5;29;;;;;;;7.49;75.4375;935.6672;;;;
2019/04/02 00:43:43;;;;;;;35.5;28.2;;;;;;;7.63;74.86035;935.6888;;;;
2019/04/02 00:46:08;;;;;;;34.5;28;;;;;;;7.81;74.06348;935.6983;;;;
2019/04/02 00:48:33;;;;;;;36.6;27.5;;;;;;;7.76;74.13574;935.6854;;;;
2019/04/02 00:50:59;;;;;;;36.9;28.6;;;;;;;7.36;75.65332;935.6442;;;;
2019/04/02 00:53:24;;;;;;;35.1;28.7;;;;;;;7.22;76.63672;935.5761;;;;
2019/04/02 00:55:49;;;;;;;56.7;42.8;;;;;;;7.52;75.27246;935.6646;;;;
2019/04/02 00:58:14;;;;;;;37.3;28.8;;;;;;;7.53;75.1377;935.6131;;;;
2019/04/02 01:00:39;;;;;;;33;26.8;;;;;;;7.5;74.65723;935.6365;;;;
2019/04/02 01:03:07;;;;;;;36.1;28.1;;;;;;;7.26;76.00879;935.5814;;;;
2019/04/02 01:05:30;;;;;;;36.1;28.9;;;;;;;7.18;76.30176;935.465;;;;
2019/04/02 01:07:55;;;;;;;37.3;28.9;;;;;;;6.8;78.11328;935.5984;;;;
2019/04/02 01:10:20;;;;;;;38.3;29.3;;;;;;;6.66;78.77734;935.572;;;;
2019/04/02 01:12:45;;;;;;;39;29.1;;;;;;;6.91;77.67871;935.573;;;;
2019/04/02 01:15:10;;;;;;;37.5;29.3;;;;;;;6.93;77.35645;935.5157;;;;
2019/04/02 01:17:35;;;;;;;34.9;28.2;;;;;;;6.97;76.97656;935.4364;;;;
2019/04/02 01:20:00;;;;;;;35.1;27.3;;;;;;;7.06;76.59766;935.5389;;;;
2019/04/02 01:22:25;;;;;;;37.7;28;;;;;;;6.93;76.96973;935.5076;;;;
2019/04/02 01:24:50;;;;;;;35;28.2;;;;;;;6.93;76.81152;935.4697;;;;
2019/04/02 01:27:16;;;;;;;35.4;27.5;;;;;;;6.85;77.23828;935.5481;;;;
2019/04/02 01:29:41;;;;;;;37.1;28.2;;;;;;;6.6;78.82324;935.4883;;;;
2019/04/02 01:32:07;;;;;;;35;26.9;;;;;;;6.63;78.78125;935.5246;;;;
2019/04/02 01:34:32;;;;;;;33.6;26.6;;;;;;;6.7;78.56836;935.5648;;;;
2019/04/02 01:36:57;;;;;;;35.1;28;;;;;;;6.88;77.79785;935.5248;;;;
2019/04/02 01:39:24;;;;;;;35.2;28.3;;;;;;;6.53;79.3418;935.4434;;;;
2019/04/02 01:41:47;;;;;;;34.7;28;;;;;;;6.25;81.59668;935.5092;;;;
2019/04/02 01:44:12;;;;;;;37.8;27.7;;;;;;;6.39;80.63867;935.4174;;;;
2019/04/02 01:46:37;;;;;;;34.1;27.5;;;;;;;6.23;81.15039;935.4306;;;;
2019/04/02 01:49:02;;;;;;;36.4;26.9;;;;;;;6.12;81.49121;935.3766;;;;
2019/04/02 01:51:28;;;;;;;33.8;27.9;;;;;;;6.22;81.02637;935.3933;;;;
2019/04/02 01:53:53;;;;;;;35.7;27.7;;;;;;;6.25;81.17773;935.3189;;;;
2019/04/02 01:56:18;;;;;;;35.3;27.7;;;;;;;6.5;79.99121;935.2988;;;;
2019/04/02 01:58:43;;;;;;;36.3;27.7;;;;;;;6.45;80.07324;935.3998;;;;
2019/04/02 02:01:15;;;;;;;35.1;27.4;;;;;;;6.72;79.07129;935.3477;;;;
2019/04/02 02:03:39;;;;;;;36.8;28;;;;;;;6.44;80.22852;935.3251;;;;
2019/04/02 02:06:04;;;;;;;38;28.5;;;;;;;6.47;79.66992;935.28;;;;
2019/04/02 02:08:29;;;;;;;39.4;28.4;;;;;;;6.47;79.2959;935.28;;;;
2019/04/02 02:10:54;;;;;;;40.8;27.9;;;;;;;6.64;78.10449;935.3002;;;;
2019/04/02 02:13:20;;;;;;;40.8;28.9;;;;;;;6.32;79.42578;935.3011;;;;
2019/04/02 02:15:45;;;;;;;39.1;27.6;;;;;;;6.43;79.3916;935.296;;;;
2019/04/02 02:18:12;;;;;;;39;28.3;;;;;;;6.31;79.74121;935.3058;;;;
2019/04/02 02:20:35;;;;;;;36.8;28.1;;;;;;;6.48;79.15137;935.2414;;;;
2019/04/02 02:23:00;;;;;;;37.9;27.5;;;;;;;6.42;79.00488;935.3304;;;;
2019/04/02 02:25:25;;;;;;;36;26.3;;;;;;;6.5;78.51074;935.3447;;;;
2019/04/02 02:27:50;;;;;;;36.7;27.2;;;;;;;6.35;78.86719;935.3658;;;;
2019/04/02 02:30:16;;;;;;;32.9;25.8;;;;;;;6.21;79.56445;935.2468;;;;
2019/04/02 02:32:41;;;;;;;39;27.4;;;;;;;6.03;80.36719;935.257;;;;
2019/04/02 02:35:08;;;;;;;38;27.3;;;;;;;5.99;80.78809;935.2983;;;;
2019/04/02 02:37:32;;;;;;;36.5;26.8;;;;;;;5.84;81.69824;935.2427;;;;
2019/04/02 02:39:57;;;;;;;34.7;26.8;;;;;;;5.87;81.58008;935.2103;;;;
2019/04/02 02:42:22;;;;;;;31.7;26;;;;;;;5.89;81.49316;935.2509;;;;
2019/04/02 02:44:47;;;;;;;33.1;25.6;;;;;;;5.89;81.59473;935.2383;;;;
2019/04/02 02:47:15;;;;;;;34.9;26.6;;;;;;;5.84;81.6416;935.2134;;;;
2019/04/02 02:49:37;;;;;;;33.2;26.4;;;;;;;5.82;81.93164;935.1934;;;;
2019/04/02 02:52:02;;;;;;;35.1;26.1;;;;;;;5.83;81.95605;935.1841;;;;
2019/04/02 02:54:28;;;;;;;33.2;25.1;;;;;;;5.81;82.26855;935.2366;;;;
2019/04/02 02:56:53;;;;;;;35.2;24.9;;;;;;;5.94;81.69629;935.1671;;;;
2019/04/02 02:59:18;;;;;;;31.4;24.9;;;;;;;5.95;81.1084;935.1072;;;;
2019/04/02 03:01:43;;;;;;;31.8;24.9;;;;;;;5.97;80.87598;935.1392;;;;
2019/04/02 03:04:08;;;;;;;31.6;23.9;;;;;;;6.03;80.55859;935.1392;;;;
2019/04/02 03:06:34;;;;;;;29.5;23.5;;;;;;;6.1;80.14355;935.0823;;;;
2019/04/02 03:08:59;;;;;;;32.5;23.5;;;;;;;6.16;79.83691;935.0525;;;;
2019/04/02 03:11:24;;;;;;;33.4;23.4;;;;;;;6.03;80.38965;935.1225;;;;
2019/04/02 03:13:49;;;;;;;31;22.7;;;;;;;6.32;79.03223;935.0435;;;;
2019/04/02 03:16:17;;;;;;;28.9;23.5;;;;;;;6.25;79.26758;935.0659;;;;
2019/04/02 03:18:39;;;;;;;32.9;24;;;;;;;6.21;79.16992;935.0271;;;;
2019/04/02 03:21:04;;;;;;;31.7;24.6;;;;;;;6.13;79.51563;935.0424;;;;
2019/04/02 03:23:29;;;;;;;32.8;23.5;;;;;;;6.18;79.55957;934.9794;;;;
2019/04/02 03:25:57;;;;;;;28.2;22.7;;;;;;;6.3;78.64258;934.9822;;;;
2019/04/02 03:28:19;;;;;;;29;22;;;;;;;6.12;79.37988;935.0051;;;;
2019/04/02 03:30:45;;;;;;;29.7;22.5;;;;;;;6.4;78.4707;934.9945;;;;
2019/04/02 03:33:10;;;;;;;29.6;23;;;;;;;7.02;75.32129;934.9808;;;;
2019/04/02 03:35:35;;;;;;;29.9;22.3;;;;;;;7.06;74.38965;934.9689;;;;
2019/04/02 03:38:00;;;;;;;29.9;23.9;;;;;;;6.43;76.84668;934.9376;;;;
2019/04/02 03:40:28;;;;;;;31.3;23.7;;;;;;;6.23;78.16602;934.9459;;;;
2019/04/02 03:42:50;;;;;;;33.8;23.3;;;;;;;6.36;77.47852;934.9557;;;;
2019/04/02 03:45:15;;;;;;;32;23.9;;;;;;;6.39;77.03125;934.8519;;;;
2019/04/02 03:47:40;;;;;;;29.6;22.8;;;;;;;6.39;76.99707;934.8519;;;;
2019/04/02 03:50:06;;;;;;;29.9;22.1;;;;;;;5.99;78.69922;934.8599;;;;
2019/04/02 03:52:31;;;;;;;31.4;21.2;;;;;;;5.88;79.28906;934.8723;;;;
2019/04/02 03:54:56;;;;;;;34.3;23.8;;;;;;;6.03;79.16895;934.9409;;;;
2019/04/02 03:57:21;;;;;;;30.3;23.6;;;;;;;6.07;78.86133;934.8492;;;;
2019/04/02 03:59:49;;;;;;;30.8;23.2;;;;;;;6.33;77.30176;934.8784;;;;
2019/04/02 04:02:41;;;;;;;28.4;21.6;;;;;;;6.49;76.09863;934.8945;;;;
2019/04/02 04:05:08;;;;;;;31.9;21;;;;;;;6.43;76.11133;934.8703;;;;
2019/04/02 04:07:31;;;;;;;32.2;21.4;;;;;;;6.34;76.18457;934.8438;;;;
2019/04/02 04:09:57;;;;;;;28.4;21.2;;;;;;;6.36;76.20996;934.7706;;;;
2019/04/02 04:12:21;;;;;;;29.5;21.3;;;;;;;6.21;76.56934;934.7955;;;;
2019/04/02 04:14:47;;;;;;;26.2;19.4;;;;;;;6.42;75.70117;934.825;;;;
2019/04/02 04:17:12;;;;;;;27.8;20;;;;;;;6.48;75.33887;934.71;;;;
2019/04/02 04:19:37;;;;;;;28.4;20.5;;;;;;;6.61;75.1709;934.7958;;;;
2019/04/02 04:22:02;;;;;;;30.8;22.2;;;;;;;6.74;74.45703;934.7894;;;;
2019/04/02 04:24:30;;;;;;;37.6;25.6;;;;;;;6.8;73.4834;934.7288;;;;
2019/04/02 04:26:55;;;;;;;37.5;24.9;;;;;;;6.47;75.14551;934.7486;;;;
2019/04/02 04:29:17;;;;;;;36.8;24.2;;;;;;;6.78;73.81836;934.7268;;;;
2019/04/02 04:31:43;;;;;;;39;24.8;;;;;;;6.71;73.72852;934.7793;;;;
2019/04/02 04:34:08;;;;;;;41.2;24.9;;;;;;;6.77;73.46582;934.7234;;;;
2019/04/02 04:36:33;;;;;;;45;24.2;;;;;;;6.51;74.13379;934.7113;;;;
2019/04/02 04:38:58;;;;;;;35.2;23.2;;;;;;;5.99;76.39453;934.6196;;;;
2019/04/02 04:41:23;;;;;;;31.3;22.5;;;;;;;5.79;77.4541;934.7152;;;;
2019/04/02 04:43:48;;;;;;;27.7;21;;;;;;;6.06;75.88574;934.5424;;;;
2019/04/02 04:46:13;;;;;;;25.5;19.6;;;;;;;5.86;76.69922;934.6002;;;;
2019/04/02 04:48:38;;;;;;;24.7;17.7;;;;;;;5.96;76.30859;934.6474;;;;
2019/04/02 04:51:03;;;;;;;28.3;17.6;;;;;;;6.17;75.48828;934.5627;;;;
2019/04/02 04:53:28;;;;;;;26.2;16;;;;;;;6.27;74.68066;934.6558;;;;
2019/04/02 04:55:53;;;;;;;26.8;17;;;;;;;6.51;73.85059;934.6314;;;;
2019/04/02 04:58:21;;;;;;;24.7;17;;;;;;;6.24;74.58594;934.6158;;;;
2019/04/02 05:00:46;;;;;;;29.2;18.6;;;;;;;6.03;75.81348;934.692;;;;
2019/04/02 05:03:11;;;;;;;27.8;17.1;;;;;;;6.05;75.59277;934.6481;;;;
2019/04/02 05:05:36;;;;;;;27.7;18;;;;;;;5.89;76.09277;934.6614;;;;
2019/04/02 05:08:01;;;;;;;30.1;17;;;;;;;5.65;77.06738;934.6806;;;;
2019/04/02 05:10:26;;;;;;;26.4;16.6;;;;;;;5.74;76.95898;934.6691;;;;
2019/04/02 05:12:51;;;;;;;30.4;17.7;;;;;;;5.94;76.17188;934.6953;;;;
2019/04/02 05:15:17;;;;;;;62.8;18.9;;;;;;;5.89;75.92383;934.7247;;;;
2019/04/02 05:17:42;;;;;;;26.8;17.7;;;;;;;6.15;74.7168;934.695;;;;
2019/04/02 05:20:09;;;;;;;27.3;17.2;;;;;;;6.45;73.1748;934.7545;;;;
2019/04/02 05:22:34;;;;;;;29.9;18;;;;;;;6.52;72.87988;934.6941;;;;
2019/04/02 05:24:59;;;;;;;31;18.8;;;;;;;6.56;72.34473;934.7581;;;;
2019/04/02 05:27:24;;;;;;;32.7;18.4;;;;;;;6.68;72.01465;934.6426;;;;
2019/04/02 05:29:50;;;;;;;33.7;18.1;;;;;;;6.8;71.60449;934.7034;;;;
2019/04/02 05:32:15;;;;;;;26.7;17.2;;;;;;;6.74;71.75195;934.7173;;;;
2019/04/02 05:34:40;;;;;;;32;15.9;;;;;;;6.64;72.0752;934.7006;;;;
2019/04/02 05:37:05;;;;;;;22.7;15.1;;;;;;;6.61;72.20605;934.7498;;;;
2019/04/02 05:39:33;;;;;;;28.9;15.1;;;;;;;6.86;71.33008;934.7032;;;;
2019/04/02 05:41:56;;;;;;;29.2;14.9;;;;;;;6.59;72.28125;934.7634;;;;
2019/04/02 05:44:21;;;;;;;26;13.7;;;;;;;6.68;72.20703;934.752;;;;
2019/04/02 05:46:46;;;;;;;29.3;13.6;;;;;;;6.5;73.09277;934.7459;;;;
2019/04/02 05:49:11;;;;;;;25.2;12;;;;;;;6.62;72.68164;934.6733;;;;
2019/04/02 05:51:36;;;;;;;33.7;11.4;;;;;;;7.35;70.17676;934.7452;;;;
2019/04/02 05:54:01;;;;;;;30.3;12.6;;;;;;;7.48;70.01563;934.7299;;;;
2019/04/02 05:56:26;;;;;;;29.1;11.8;;;;;;;7.97;68.21289;934.7628;;;;
2019/04/02 05:58:51;;;;;;;32;11.5;;;;;;;8.65;68.57129;934.6122;;;;
2019/04/02 06:01:17;;;;;;;23.8;9.8;;;;;;;9.55;62.29883;934.6428;;;;
2019/04/02 06:03:42;;;;;;;17.6;8.9;;;;;;;10.39;58.78027;934.6331;;;;
2019/04/02 06:06:07;;;;;;;22.6;9.2;;;;;;;10.91;56.08496;934.5646;;;;
2019/04/02 06:08:32;;;;;;;23.5;9.4;;;;;;;11.44;54.87402;934.5907;;;;
2019/04/02 06:10:57;;;;;;;24.3;9.7;;;;;;;12.34;51.9375;934.4749;;;;
2019/04/02 06:13:22;;;;;;;17.4;9.4;;;;;;;12.67;49.6709;934.4613;;;;
2019/04/02 06:15:48;;;;;;;20.1;9.9;;;;;;;12.55;50.00098;934.4695;;;;
2019/04/02 06:18:13;;;;;;;20.4;9.7;;;;;;;12.87;49.10742;934.3335;;;;
2019/04/02 06:20:41;;;;;;;22.9;10.1;;;;;;;12.83;48.98828;934.3674;;;;
2019/04/02 06:23:03;;;;;;;21.4;9.8;;;;;;;12.41;49.77734;934.3788;;;;
2019/04/02 06:25:31;;;;;;;18.5;10.1;;;;;;;12.49;49.55859;934.3613;;;;
2019/04/02 06:27:54;;;;;;;19;10.1;;;;;;;13.2;48.69824;934.3519;;;;
2019/04/02 06:30:19;;;;;;;22.5;10.5;;;;;;;13.96;47.02148;934.3147;;;;
2019/04/02 06:32:45;;;;;;;23.8;10.1;;;;;;;14.79;44.34375;934.2874;;;;
2019/04/02 06:35:10;;;;;;;27.3;10.1;;;;;;;15.13;43.45508;934.2431;;;;
2019/04/02 06:37:35;;;;;;;26.7;9.4;;;;;;;15.48;42.28906;934.3555;;;;
2019/04/02 06:40:00;;;;;;;28.9;9.6;;;;;;;15.72;41.5498;934.2759;;;;
2019/04/02 06:42:27;;;;;;;23.8;8.4;;;;;;;14.74;42.43652;934.199;;;;
2019/04/02 06:44:50;;;;;;;20.4;8.6;;;;;;;15.43;42.61914;934.2553;;;;
2019/04/02 06:47:19;;;;;;;16.7;7.4;;;;;;;16.06;39.99805;934.2385;;;;
2019/04/02 06:49:54;;;;;;;18.1;7.8;;;;;;;15.95;39.98828;934.2226;;;;
2019/04/02 06:52:06;;;;;;;17.9;7.4;;;;;;;15.94;39.98633;934.1336;;;;
2019/04/02 06:54:31;;;;;;;17.1;6.8;;;;;;;15.4;40.43359;934.1214;;;;
2019/04/02 06:56:56;;;;;;;11.9;6;;;;;;;14.97;41.57031;934.0823;;;;
2019/04/02 06:59:21;;;;;;;15.4;6.8;;;;;;;14.76;42.2998;934.0937;;;;
2019/04/02 07:01:46;;;;;;;11.4;6.1;;;;;;;14.76;40.97461;934.1074;;;;
2019/04/02 07:04:12;;;;;;;16.6;6.8;;;;;;;14.95;42.0752;934.0555;;;;
2019/04/02 07:06:37;;;;;;;12.7;6.8;;;;;;;15.32;39.72266;934.019;;;;
2019/04/02 07:09:03;;;;;;;16.9;7;;;;;;;15.48;39.59766;934.0266;;;;
2019/04/02 07:11:31;;;;;;;13.3;6.3;;;;;;;15.88;39.57715;934.0591;;;;
2019/04/02 07:13:56;;;;;;;10.5;5.9;;;;;;;17.55;36.00293;933.8723;;;;
2019/04/02 07:16:21;;;;;;;8.9;5.6;;;;;;;17.61;33.62988;933.9545;;;;
2019/04/02 07:18:46;;;;;;;9.7;5.9;;;;;;;17.62;32.8877;933.82;;;;
2019/04/02 07:21:11;;;;;;;11.6;5.3;;;;;;;17.47;32.83008;933.9079;;;;
2019/04/02 07:23:36;;;;;;;9.9;5.3;;;;;;;17.95;33.3877;933.8162;;;;
2019/04/02 07:26:01;;;;;;;14.1;5.8;;;;;;;18.19;32.84863;933.8369;;;;
2019/04/02 07:28:26;;;;;;;8.4;5.5;;;;;;;18.77;32.00781;933.8767;;;;
2019/04/02 07:30:51;;;;;;;8.6;5.1;;;;;;;19.54;30.4082;933.8466;;;;
2019/04/02 07:33:20;;;;;;;6.4;4.9;;;;;;;19.31;30.13672;933.8983;;;;
2019/04/02 07:35:42;;;;;;;11.1;5.3;;;;;;;19.84;29.69434;933.8308;;;;
2019/04/02 07:38:07;;;;;;;7.5;4.7;;;;;;;19.86;28.37793;933.8236;;;;
2019/04/02 07:40:32;;;;;;;11.8;4.8;;;;;;;19.42;30.62109;933.7286;;;;
2019/04/02 07:42:57;;;;;;;10.6;5.3;;;;;;;20.21;29.42773;933.723;;;;
2019/04/02 07:45:22;;;;;;;12.4;5;;;;;;;20.48;27.45996;933.7678;;;;
2019/04/02 07:47:47;;;;;;;12.7;5.1;;;;;;;20.61;27.10645;933.6367;;;;
2019/04/02 07:50:12;;;;;;;13;4.9;;;;;;;21.46;26.49023;933.603;;;;
2019/04/02 07:52:39;;;;;;;13.4;5.1;;;;;;;22.09;25.81348;933.5587;;;;
2019/04/02 07:55:05;;;;;;;10.9;4.9;;;;;;;22.81;24.75098;933.5817;;;;
2019/04/02 07:57:30;;;;;;;11.4;4.9;;;;;;;23.01;24.09277;933.573;;;;
2019/04/02 07:59:55;;;;;;;7.9;4.7;;;;;;;23.16;24.05371;933.6331;;;;
2019/04/02 08:02:20;;;;;;;8.5;4.3;;;;;;;23.41;23.75;933.6155;;;;
2019/04/02 08:04:45;;;;;;;7.8;4.5;;;;;;;23.59;23.83008;933.5851;;;;
2019/04/02 08:07:12;;;;;;;11.8;4.9;;;;;;;25;22.38379;933.5475;;;;
2019/04/02 08:09:37;;;;;;;9.7;4.3;;;;;;;27.05;18.47949;933.5566;;;;
2019/04/02 08:12:02;;;;;;;7.5;4.7;;;;;;;27.08;18.77734;933.5385;;;;
2019/04/02 08:14:27;;;;;;;10.2;4.9;;;;;;;26.49;18.40918;933.5234;;;;
2019/04/02 08:16:53;;;;;;;7.1;4.9;;;;;;;26.16;18.07617;933.4556;;;;
2019/04/02 08:19:18;;;;;;;9.6;5.1;;;;;;;26.16;19.5791;933.5901;;;;
2019/04/02 08:21:43;;;;;;;13.2;5;;;;;;;26.91;18.04688;933.5544;;;;
2019/04/02 08:24:11;;;;;;;7.6;4.4;;;;;;;23.88;20.17285;933.5186;;;;
2019/04/02 08:26:34;;;;;;;8.3;4.4;;;;;;;25.27;18.78418;933.4816;;;;
2019/04/02 08:28:59;;;;;;;7.9;4.9;;;;;;;26.17;18.49023;933.4021;;;;
2019/04/02 08:31:25;;;;;;;8.5;4.6;;;;;;;28.23;15.06934;933.4615;;;;
2019/04/02 08:33:50;;;;;;;8.4;4.6;;;;;;;27.94;15.03613;933.4055;;;;
2019/04/02 08:36:15;;;;;;;7.9;4.6;;;;;;;28.74;14.80078;933.4465;;;;
2019/04/02 08:38:40;;;;;;;5;4.2;;;;;;;27.1;15.89746;933.3344;;;;
2019/04/02 08:41:07;;;;;;;6.7;4.2;;;;;;;29.05;14.34668;933.3409;;;;
2019/04/02 08:43:31;;;;;;;7.5;4.4;;;;;;;27.68;14.23145;933.3766;;;;
2019/04/02 08:45:59;;;;;;;15.1;4.7;;;;;;;27.7;14.89746;933.3293;;;;
2019/04/02 08:48:25;;;;;;;5.4;4.1;;;;;;;27.32;15.22852;933.3455;;;;
2019/04/02 08:50:50;;;;;;;7;4.1;;;;;;;26.49;15.98242;933.2883;;;;
2019/04/02 08:53:15;;;;;;;7.5;4;;;;;;;27.56;15.09473;933.3616;;;;
2019/04/02 08:55:40;;;;;;;6.4;3.8;;;;;;;27.32;14.81348;933.3114;;;;
2019/04/02 08:58:05;;;;;;;5.7;3.7;;;;;;;26.19;15.94824;933.2678;;;;
2019/04/02 09:00:30;;;;;;;7.5;4.3;;;;;;;25.77;15.75586;933.253;;;;
2019/04/02 09:02:55;;;;;;;7.2;4;;;;;;;24.93;17.3418;933.1893;;;;
2019/04/02 09:05:20;;;;;;;4.9;3.7;;;;;;;26.36;16.48633;933.2143;;;;
2019/04/02 09:08:00;;;;;;;5.5;4.1;;;;;;;27.18;14.22754;933.1867;;;;
2019/04/02 09:10:25;;;;;;;7.4;4;;;;;;;26.06;14.92578;933.1756;;;;
2019/04/02 09:12:50;;;;;;;4.3;3.7;;;;;;;27.1;14.24902;933.1605;;;;
2019/04/02 09:15:15;;;;;;;6.1;4.1;;;;;;;27.26;15.08496;933.1806;;;;
2019/04/02 09:17:41;;;;;;;6.6;3.9;;;;;;;26.87;14.49121;933.1333;;;;
2019/04/02 09:20:06;;;;;;;5.6;4;;;;;;;25.79;15.23633;933.0637;;;;
2019/04/02 09:22:31;;;;;;;5.4;4.1;;;;;;;24.41;17.36914;933.1802;;;;
2019/04/02 09:24:59;;;;;;;5.8;3.9;;;;;;;23.35;18.40918;933.114;;;;
2019/04/02 09:27:21;;;;;;;6.9;3.9;;;;;;;24.85;17.42188;933.1234;;;;
2019/04/02 09:29:47;;;;;;;5.6;4.3;;;;;;;24.82;16.90137;933.0798;;;;
2019/04/02 09:32:12;;;;;;;6.7;4;;;;;;;25.42;15.88477;933.0746;;;;
2019/04/02 09:34:37;;;;;;;5.6;4.1;;;;;;;25.21;15.90137;933.0569;;;;
2019/04/02 09:37:02;;;;;;;10.8;4.2;;;;;;;25.62;15.91602;933.0464;;;;
2019/04/02 09:39:27;;;;;;;6.5;4;;;;;;;26.13;15.75586;932.9684;;;;
2019/04/02 09:41:52;;;;;;;7.1;3.8;;;;;;;27.05;15.56348;932.9995;;;;
2019/04/02 09:44:17;;;;;;;9.3;4.1;;;;;;;28.32;13.14648;932.9338;;;;
2019/04/02 09:46:43;;;;;;;6.1;3.8;;;;;;;26.78;15.4834;932.9;;;;
2019/04/02 09:49:10;;;;;;;5.2;3.5;;;;;;;26.3;15.15918;932.8323;;;;
2019/04/02 09:51:33;;;;;;;6.7;4;;;;;;;26.01;14.48633;932.8447;;;;
2019/04/02 09:53:58;;;;;;;6.8;3.7;;;;;;;26.4;15.59961;932.8069;;;;
2019/04/02 09:56:23;;;;;;;6.8;4;;;;;;;26.85;15.63867;932.728;;;;
2019/04/02 09:58:49;;;;;;;6.9;3.8;;;;;;;26.02;15.58691;932.7208;;;;
2019/04/02 10:01:14;;;;;;;7.1;3.9;;;;;;;25.68;14.79492;932.6246;;;;
2019/04/02 10:03:39;;;;;;;10.5;4;;;;;;;26.28;14.94531;932.5919;;;;
2019/04/02 10:06:05;;;;;;;6.5;3.6;;;;;;;25.62;14.78125;932.6772;;;;
2019/04/02 10:08:30;;;;;;;5.5;3.9;;;;;;;25.08;15.94336;932.5917;;;;
2019/04/02 10:10:55;;;;;;;5.1;3.6;;;;;;;26.07;14.52441;932.5215;;;;
2019/04/02 10:13:20;;;;;;;7.8;3.7;;;;;;;26.65;14.68555;932.4645;;;;
2019/04/02 10:15:45;;;;;;;5.4;3.6;;;;;;;25.33;14.9375;932.4597;;;;
2019/04/02 10:18:10;;;;;;;5.3;3.4;;;;;;;25.31;14.52344;932.4412;;;;
2019/04/02 10:20:35;;;;;;;5.9;3.2;;;;;;;25.69;15.68164;932.3311;;;;
2019/04/02 10:23:00;;;;;;;5.7;3.6;;;;;;;26.61;13.55859;932.3439;;;;
2019/04/02 10:25:25;;;;;;;5.4;3.8;;;;;;;26.3;13.5498;932.3269;;;;
2019/04/02 10:27:50;;;;;;;7.5;3.6;;;;;;;26;13.90625;932.3329;;;;
2019/04/02 10:30:15;;;;;;;11;3.9;;;;;;;25.94;14.27148;932.2034;;;;
2019/04/02 10:32:40;;;;;;;5.4;3.8;;;;;;;26.28;14.90918;932.2523;;;;
2019/04/02 10:35:06;;;;;;;6.8;3.9;;;;;;;27.33;12.53711;932.2006;;;;
2019/04/02 10:37:31;;;;;;;7;3.6;;;;;;;27.17;13.94336;932.1286;;;;
2019/04/02 10:39:56;;;;;;;5.3;3.3;;;;;;;27.34;12.8457;932.147;;;;
2019/04/02 10:42:21;;;;;;;4.6;3.3;;;;;;;27.47;11.6748;932.1158;;;;
2019/04/02 10:44:53;;;;;;;6.7;3.9;;;;;;;25.46;13.14551;932.0303;;;;
2019/04/02 10:47:16;;;;;;;4.9;3.8;;;;;;;26.18;12.71777;932.0204;;;;
2019/04/02 10:49:41;;;;;;;6.8;3.6;;;;;;;27.52;12.91016;931.8461;;;;
2019/04/02 10:52:06;;;;;;;4.5;3.4;;;;;;;28.95;11.02246;931.8538;;;;
2019/04/02 10:54:31;;;;;;;6.2;3.5;;;;;;;27.49;12.29199;931.9338;;;;
2019/04/02 10:56:56;;;;;;;6.4;3.5;;;;;;;28.42;11.52051;931.881;;;;
2019/04/02 10:59:21;;;;;;;4.2;3.4;;;;;;;28.14;10.88379;931.7994;;;;
2019/04/02 11:01:46;;;;;;;4.7;3.4;;;;;;;28.39;11.44922;931.834;;;;
2019/04/02 11:04:11;;;;;;;4.7;3.3;;;;;;;29.46;12.46484;931.8072;;;;
2019/04/02 11:06:37;;;;;;;4;3;;;;;;;30.87;10.07715;931.7935;;;;
2019/04/02 11:09:05;;;;;;;4.1;2.9;;;;;;;32.08;9.756836;931.7283;;;;
2019/04/02 11:11:27;;;;;;;4.3;3;;;;;;;30.72;8.6875;931.6717;;;;
2019/04/02 11:13:52;;;;;;;3.7;3;;;;;;;29.2;10.57617;931.5516;;;;
2019/04/02 11:16:17;;;;;;;4.1;3;;;;;;;27.43;10.77148;931.6301;;;;
2019/04/02 11:18:42;;;;;;;7.7;3.1;;;;;;;24.79;13.92871;931.525;;;;
2019/04/02 11:21:08;;;;;;;5.7;3.3;;;;;;;25.06;12.98047;931.5773;;;;
2019/04/02 11:23:33;;;;;;;5.1;3.4;;;;;;;24.56;13.01367;931.5801;;;;
2019/04/02 11:25:59;;;;;;;6.5;3.4;;;;;;;24.2;14.02734;931.5901;;;;
2019/04/02 11:28:24;;;;;;;5.1;3.3;;;;;;;24.79;12.78418;931.5262;;;;
2019/04/02 11:30:49;;;;;;;5.5;3.3;;;;;;;24.67;13.13477;931.567;;;;
2019/04/02 11:33:14;;;;;;;11.3;3.7;;;;;;;25.34;15.91699;931.5193;;;;
2019/04/02 11:35:39;;;;;;;6.5;3.3;;;;;;;26.94;12.91699;931.4442;;;;
2019/04/02 11:38:04;;;;;;;4.7;3.3;;;;;;;27.73;11.66895;931.4351;;;;
2019/04/02 11:40:29;;;;;;;5.2;2.6;;;;;;;27.84;11.53027;931.3276;;;;
2019/04/02 11:42:54;;;;;;;7.2;3;;;;;;;28.64;11.45508;931.293;;;;
2019/04/02 11:45:19;;;;;;;6.3;2.8;;;;;;;28.35;10.3418;931.301;;;;
2019/04/02 11:47:45;;;;;;;5.6;2.9;;;;;;;28.49;10.39258;931.3409;;;;
2019/04/02 11:50:10;;;;;;;5.9;3.3;;;;;;;30.4;8.967773;931.2272;;;;
2019/04/02 11:52:35;;;;;;;4.7;2.8;;;;;;;31.35;9.693359;931.1731;;;;
2019/04/02 11:55:01;;;;;;;6.5;2.8;;;;;;;30.19;8.760742;931.2141;;;;
2019/04/02 11:57:26;;;;;;;4.2;2.6;;;;;;;29.58;10.46582;931.1102;;;;
2019/04/02 11:59:51;;;;;;;3.9;2.7;;;;;;;30.11;9.285156;931.0876;;;;
2019/04/02 12:02:19;;;;;;;4.1;2.5;;;;;;;29.97;8.196289;931.0837;;;;
2019/04/02 12:04:44;;;;;;;3.4;2.4;;;;;;;30.68;7.910156;931.0491;;;;
2019/04/02 12:07:12;;;;;;;10.4;2.8;;;;;;;30.83;8.1875;931.0242;;;;
2019/04/02 12:09:34;;;;;;;9;2;;;;;;;30.67;8.889648;930.9677;;;;
2019/04/02 12:12:00;;;;;;;4.5;2.2;;;;;;;27.04;9.980469;930.9125;;;;
2019/04/02 12:14:25;;;;;;;4.2;2.3;;;;;;;26.64;11.23828;930.9199;;;;
2019/04/02 12:16:50;;;;;;;8;2.2;;;;;;;25.84;11.95117;930.8273;;;;
2019/04/02 12:19:16;;;;;;;3.3;2.6;;;;;;;25.42;11.72754;930.7151;;;;
2019/04/02 12:21:41;;;;;;;3.4;2.3;;;;;;;27.68;9.994141;930.7324;;;;
2019/04/02 12:24:06;;;;;;;5;2.1;;;;;;;28.6;9.8125;930.6742;;;;
2019/04/02 12:26:31;;;;;;;3.3;2.3;;;;;;;29.91;8.838867;930.626;;;;
2019/04/02 12:28:56;;;;;;;4.3;2.5;;;;;;;30.85;9.012695;930.6347;;;;
2019/04/02 12:31:22;;;;;;;9;2.7;;;;;;;30.05;11.37109;930.6181;;;;
2019/04/02 12:33:47;;;;;;;5.1;2.4;;;;;;;28.6;11.78711;930.4959;;;;
2019/04/02 12:36:12;;;;;;;4.3;2.3;;;;;;;27.53;11.83008;930.4523;;;;
2019/04/02 12:38:37;;;;;;;7.2;2.7;;;;;;;26.12;13.25977;930.4247;;;;
2019/04/02 12:41:02;;;;;;;7.3;2.4;;;;;;;26.91;12.0752;930.4414;;;;
2019/04/02 12:43:27;;;;;;;9.3;2.8;;;;;;;26.38;13.70605;930.4358;;;;
2019/04/02 12:45:52;;;;;;;5.9;2.6;;;;;;;28.01;12.7334;930.4297;;;;
2019/04/02 12:48:18;;;;;;;13.3;2.9;;;;;;;28.14;12.48828;930.3846;;;;
2019/04/02 12:50:44;;;;;;;5.2;2.5;;;;;;;26.48;13.37695;930.3538;;;;
2019/04/02 12:53:09;;;;;;;4.9;2.6;;;;;;;26.94;12.08691;930.3668;;;;
2019/04/02 12:55:34;;;;;;;5.6;2.7;;;;;;;27.4;13.20313;930.2877;;;;
2019/04/02 12:58:00;;;;;;;10.4;3;;;;;;;26.69;13.65625;930.3016;;;;
2019/04/02 13:00:25;;;;;;;8.6;2.8;;;;;;;28.76;12.16016;930.2745;;;;
2019/04/02 13:02:50;;;;;;;6.4;2.6;;;;;;;28;12.61523;930.2255;;;;
2019/04/02 13:05:15;;;;;;;11.8;2.7;;;;;;;28.41;11.14063;930.2587;;;;
2019/04/02 13:07:40;;;;;;;6.2;2.5;;;;;;;27.86;10.54492;930.2067;;;;
2019/04/02 13:10:05;;;;;;;5.1;2.3;;;;;;;28.64;10.13477;930.2573;;;;
2019/04/02 13:12:31;;;;;;;4.3;2.4;;;;;;;29.25;9.564453;930.2221;;;;
2019/04/02 13:14:55;;;;;;;5.5;2.8;;;;;;;29.17;10.63477;930.1833;;;;
2019/04/02 13:17:23;;;;;;;4.4;2.5;;;;;;;28.65;11.87207;930.1379;;;;
2019/04/02 13:19:46;;;;;;;5.1;2.7;;;;;;;28.96;11.12988;930.0108;;;;
2019/04/02 13:22:11;;;;;;;4.3;2.4;;;;;;;29.5;11.11914;930.0622;;;;
2019/04/02 13:24:36;;;;;;;4.6;2.2;;;;;;;29.68;9.633789;930.0076;;;;
2019/04/02 13:27:01;;;;;;;7;2.3;;;;;;;27.19;11.9873;929.9979;;;;
2019/04/02 13:29:26;;;;;;;4.3;2.3;;;;;;;28.51;10.19141;929.9358;;;;
2019/04/02 13:31:51;;;;;;;3.2;2.2;;;;;;;28.35;9.759766;929.9551;;;;
2019/04/02 13:34:16;;;;;;;3;2.2;;;;;;;29.21;10.27832;929.9387;;;;
2019/04/02 13:36:41;;;;;;;2.5;2.1;;;;;;;28.47;10.19043;929.9111;;;;
2019/04/02 13:39:07;;;;;;;4.5;2.3;;;;;;;29.3;10.20898;929.9105;;;;
2019/04/02 13:41:32;;;;;;;5;2.5;;;;;;;29.02;12.23926;929.816;;;;
2019/04/02 13:43:57;;;;;;;6.7;2.6;;;;;;;25.93;13.53809;929.8289;;;;
2019/04/02 13:46:22;;;;;;;10.4;2.7;;;;;;;25.11;14.7168;929.7708;;;;
2019/04/02 13:48:48;;;;;;;3.9;2.4;;;;;;;24.9;15.04102;929.7967;;;;
2019/04/02 13:51:13;;;;;;;7.6;2.7;;;;;;;25.47;13.52441;929.8273;;;;
2019/04/02 13:53:38;;;;;;;5.4;2.4;;;;;;;25.67;13.71973;929.8466;;;;
2019/04/02 13:56:04;;;;;;;9.3;2.9;;;;;;;25.23;12.97363;929.7467;;;;
2019/04/02 13:58:29;;;;;;;5.8;2.5;;;;;;;24.69;13.28809;929.6781;;;;
2019/04/02 14:00:53;;;;;;;5.5;2.7;;;;;;;24.79;15.03711;929.6499;;;;
2019/04/02 14:03:22;;;;;;;5;2.7;;;;;;;24.66;14.43066;929.6233;;;;
2019/04/02 14:05:43;;;;;;;5;2.6;;;;;;;24.37;14.22168;929.6132;;;;